Time;durP1;ratioP1;P1;durP2;ratioP2;P2;SDS_P1;SDS_P2;PMS_P1;PMS_P2;Temp;Humidity;BMP_temperature;BMP_pressure;BME280_temperature;BME280_humidity;BME280_pressure;Samples;Min_cycle;Max_cycle;Signal;HPM_P1;HPM_P2
2021/07/08 00:01:44;;;;;;;5.27;1.40;;;;;;;15.84;100.00;96179.59;5033317;28;20418;-77
2021/07/08 00:04:10;;;;;;;2.60;1.05;;;;;;;15.87;100.00;96181.94;5031926;28;20418;-77
2021/07/08 00:06:36;;;;;;;2.00;0.90;;;;;;;15.89;100.00;96177.44;5032904;28;20441;-76
2021/07/08 00:09:01;;;;;;;2.23;0.90;;;;;;;15.82;100.00;96177.09;5033155;28;20444;-77
2021/07/08 00:11:27;;;;;;;1.55;0.70;;;;;;;15.65;100.00;96186.25;5031890;28;20419;-77
2021/07/08 00:13:54;;;;;;;2.60;0.90;;;;;;;15.67;100.00;96192.16;5031757;28;20454;-77
2021/07/08 00:16:19;;;;;;;1.58;0.70;;;;;;;15.65;100.00;96185.38;5032868;28;20418;-77
2021/07/08 00:18:46;;;;;;;2.28;1.02;;;;;;;15.58;100.00;96190.22;5031814;28;20450;-77
2021/07/08 00:21:12;;;;;;;3.65;0.95;;;;;;;15.67;100.00;96186.94;5033073;28;20415;-77
2021/07/08 00:23:37;;;;;;;3.17;0.80;;;;;;;15.60;100.00;96182.25;5032901;28;20983;-77
2021/07/08 00:26:03;;;;;;;1.42;0.80;;;;;;;15.54;100.00;96178.34;5032553;28;20877;-77
2021/07/08 00:28:28;;;;;;;2.08;0.95;;;;;;;15.65;100.00;96173.19;5032794;28;20415;-77
2021/07/08 00:30:54;;;;;;;1.77;0.97;;;;;;;15.72;100.00;96168.28;5031396;28;20421;-77
2021/07/08 00:33:21;;;;;;;3.27;0.80;;;;;;;15.68;100.00;96165.13;5032670;28;20489;-77
2021/07/08 00:35:49;;;;;;;0.93;0.70;;;;;;;15.71;100.00;96167.47;5032377;28;20422;-77
2021/07/08 00:38:14;;;;;;;1.57;1.00;;;;;;;15.76;100.00;96163.66;5032667;28;20427;-77
2021/07/08 00:40:40;;;;;;;2.50;1.00;;;;;;;15.74;100.00;96155.97;5032555;28;20789;-77
2021/07/08 00:43:07;;;;;;;2.90;1.02;;;;;;;15.82;100.00;96152.75;5031310;28;20418;-77
2021/07/08 00:45:33;;;;;;;2.53;0.90;;;;;;;15.79;100.00;96158.22;5032107;28;20931;-77
2021/07/08 00:47:58;;;;;;;1.48;0.98;;;;;;;15.70;100.00;96147.53;5032451;28;20407;-76
2021/07/08 00:50:27;;;;;;;2.70;1.35;;;;;;;15.52;100.00;96130.66;5032348;28;20446;-77
2021/07/08 00:52:55;;;;;;;2.08;1.13;;;;;;;15.36;100.00;96124.94;5032143;28;20431;-76
2021/07/08 00:55:20;;;;;;;1.65;1.00;;;;;;;15.15;100.00;96117.78;5031594;28;20418;-77
2021/07/08 00:57:52;;;;;;;2.08;0.88;;;;;;;15.24;100.00;96109.28;5032355;28;20784;-77
2021/07/08 01:00:18;;;;;;;3.17;1.15;;;;;;;15.25;100.00;96113.53;5032360;28;20407;-76
2021/07/08 01:02:43;;;;;;;1.55;1.27;;;;;;;15.28;100.00;96114.22;5030889;28;20423;-76
2021/07/08 01:05:10;;;;;;;2.42;1.30;;;;;;;15.29;100.00;96110.69;5032052;28;20437;-76
2021/07/08 01:07:36;;;;;;;2.95;1.50;;;;;;;15.27;100.00;96110.78;5032059;28;20461;-76
2021/07/08 01:10:04;;;;;;;3.67;1.90;;;;;;;15.05;100.00;96108.16;5032000;28;20407;-76
2021/07/08 01:12:29;;;;;;;10.15;2.35;;;;;;;14.94;100.00;96135.03;5031780;28;20975;-76
2021/07/08 01:14:54;;;;;;;2.35;1.67;;;;;;;15.16;100.00;96160.34;5031844;28;20439;-77
2021/07/08 01:17:22;;;;;;;5.13;1.10;;;;;;;15.20;100.00;96170.47;5031784;28;20422;-77
2021/07/08 01:19:48;;;;;;;2.00;0.80;;;;;;;15.29;100.00;96163.72;5030637;28;20845;-77
2021/07/08 01:22:15;;;;;;;0.80;0.70;;;;;;;15.39;100.00;96163.88;5032089;28;20410;-76
2021/07/08 01:24:41;;;;;;;2.28;0.85;;;;;;;15.42;100.00;96163.59;5031683;28;20488;-76
2021/07/08 01:27:07;;;;;;;3.55;1.05;;;;;;;15.48;100.00;96150.94;5031681;28;20917;-77
2021/07/08 01:29:33;;;;;;;1.73;0.80;;;;;;;15.45;100.00;96143.31;5030338;28;20480;-76
2021/07/08 01:31:59;;;;;;;4.35;0.93;;;;;;;15.28;100.00;96145.53;5030359;28;20426;-76
2021/07/08 01:34:24;;;;;;;3.10;0.90;;;;;;;15.14;100.00;96149.22;5031387;28;20437;-76
2021/07/08 01:36:49;;;;;;;2.93;1.00;;;;;;;15.05;100.00;96152.50;5031420;28;20420;-76
2021/07/08 01:39:19;;;;;;;1.90;0.83;;;;;;;15.16;100.00;96144.69;5031504;28;20827;-76
2021/07/08 01:41:44;;;;;;;1.90;0.80;;;;;;;15.23;100.00;96141.50;5031340;28;20419;-76
2021/07/08 01:44:11;;;;;;;4.00;1.10;;;;;;;15.25;100.00;96130.97;5031686;28;20431;-77
2021/07/08 01:46:38;;;;;;;3.00;0.80;;;;;;;15.20;100.00;96136.56;5031191;28;20469;-77
2021/07/08 01:49:04;;;;;;;3.03;1.00;;;;;;;15.19;100.00;96129.66;5031504;28;20443;-76
2021/07/08 01:51:31;;;;;;;2.10;0.90;;;;;;;15.13;100.00;96122.31;5030057;28;20450;-77
2021/07/08 01:53:57;;;;;;;2.92;1.00;;;;;;;15.09;100.00;96115.66;5030813;28;20476;-76
2021/07/08 01:56:25;;;;;;;2.90;0.90;;;;;;;15.09;100.00;96114.78;5030944;28;20423;-76
2021/07/08 01:58:52;;;;;;;3.75;1.10;;;;;;;15.01;100.00;96121.41;5031432;28;20411;-76
2021/07/08 02:01:18;;;;;;;4.80;1.10;;;;;;;14.91;100.00;96114.44;5031218;28;20925;-76
2021/07/08 02:03:43;;;;;;;3.70;1.10;;;;;;;14.74;100.00;96126.91;5029788;28;20563;-76
2021/07/08 02:06:09;;;;;;;3.10;1.30;;;;;;;14.83;100.00;96114.13;5029299;28;20415;-77
2021/07/08 02:08:36;;;;;;;7.03;1.33;;;;;;;14.86;100.00;96119.97;5027187;28;20411;-76
2021/07/08 02:11:02;;;;;;;1.98;0.90;;;;;;;14.88;100.00;96114.66;5027153;28;20473;-76
2021/07/08 02:13:28;;;;;;;1.23;0.80;;;;;;;14.97;100.00;96120.00;5024748;28;20430;-76
2021/07/08 02:15:54;;;;;;;5.13;0.85;;;;;;;15.04;100.00;96125.59;5030585;28;20931;-77
2021/07/08 02:18:19;;;;;;;2.83;0.90;;;;;;;15.13;100.00;96127.53;5030748;28;20415;-77
2021/07/08 02:20:45;;;;;;;3.63;0.80;;;;;;;15.20;100.00;96123.50;5030751;28;20411;-77
2021/07/08 02:23:10;;;;;;;3.90;0.90;;;;;;;15.22;100.00;96113.75;5022540;28;20804;-76
2021/07/08 02:25:35;;;;;;;4.43;0.93;;;;;;;15.23;100.00;96120.63;5029317;28;20429;-77
2021/07/08 02:28:01;;;;;;;1.90;1.10;;;;;;;15.19;100.00;96113.16;5029589;28;20455;-76
2021/07/08 02:30:28;;;;;;;3.70;0.90;;;;;;;15.16;100.00;96127.25;5029968;28;20513;-76
2021/07/08 02:32:55;;;;;;;1.17;1.00;;;;;;;15.26;100.00;96135.25;5029799;28;20431;-76
2021/07/08 02:35:22;;;;;;;6.30;0.90;;;;;;;15.32;100.00;96113.91;5011212;28;20760;-76
2021/07/08 02:37:48;;;;;;;2.00;0.90;;;;;;;15.31;100.00;96107.00;5022313;28;20429;-77
2021/07/08 02:40:16;;;;;;;1.65;0.70;;;;;;;15.25;100.00;96117.94;5029373;28;20788;-76
2021/07/08 02:42:48;;;;;;;2.22;0.90;;;;;;;15.14;100.00;96121.34;5030501;28;20505;-76
2021/07/08 02:45:14;;;;;;;4.90;0.90;;;;;;;15.05;100.00;96114.19;5028837;28;20450;-76
2021/07/08 02:47:40;;;;;;;1.50;0.80;;;;;;;14.96;100.00;96113.13;5030572;28;20909;-76
2021/07/08 02:50:07;;;;;;;1.58;0.90;;;;;;;14.97;100.00;96111.34;5030626;28;20419;-76
2021/07/08 02:52:33;;;;;;;2.92;0.80;;;;;;;15.05;100.00;96106.38;5030508;28;20425;-76
2021/07/08 02:54:58;;;;;;;1.20;0.70;;;;;;;15.16;100.00;96110.78;5030404;28;20829;-76
2021/07/08 02:57:23;;;;;;;1.92;0.80;;;;;;;15.21;100.00;96121.72;5029984;28;20411;-76
2021/07/08 02:59:49;;;;;;;2.67;0.90;;;;;;;15.24;100.00;96122.31;5022250;28;20468;-76
2021/07/08 03:02:14;;;;;;;1.30;0.77;;;;;;;15.32;100.00;96131.34;5030384;28;20446;-76
2021/07/08 03:04:41;;;;;;;1.40;0.60;;;;;;;15.33;100.00;96131.22;5030353;28;20535;-76
2021/07/08 03:07:06;;;;;;;2.55;0.93;;;;;;;15.32;100.00;96131.34;5028924;28;20765;-76
2021/07/08 03:09:32;;;;;;;1.67;0.80;;;;;;;15.34;100.00;96126.81;5030339;28;20411;-76
2021/07/08 03:11:57;;;;;;;1.90;0.73;;;;;;;15.35;100.00;96116.28;5030276;28;20411;-76
2021/07/08 03:14:23;;;;;;;1.70;0.70;;;;;;;15.35;100.00;96116.28;5030122;28;20967;-76
2021/07/08 03:16:48;;;;;;;2.15;0.88;;;;;;;15.36;100.00;96122.34;5028522;28;20419;-76
2021/07/08 03:19:14;;;;;;;1.50;0.83;;;;;;;15.35;100.00;96133.69;5032018;28;20488;-76
2021/07/08 03:21:40;;;;;;;1.87;0.93;;;;;;;15.36;100.00;96140.59;5032779;28;20529;-76
2021/07/08 03:24:06;;;;;;;5.40;1.00;;;;;;;15.34;100.00;96138.09;5033910;28;20909;-76
2021/07/08 03:26:31;;;;;;;1.40;1.00;;;;;;;15.36;100.00;96135.38;5033488;28;20485;-76
2021/07/08 03:28:57;;;;;;;2.50;0.90;;;;;;;15.38;100.00;96125.63;5033619;28;20407;-76
2021/07/08 03:31:22;;;;;;;1.15;0.93;;;;;;;15.36;100.00;96114.50;5025460;28;20414;-76
2021/07/08 03:33:48;;;;;;;2.20;1.05;;;;;;;15.29;100.00;96115.91;5033654;28;20960;-76
2021/07/08 03:36:13;;;;;;;2.00;1.00;;;;;;;15.31;100.00;96111.41;5032162;28;20936;-76
2021/07/08 03:38:40;;;;;;;1.50;1.03;;;;;;;15.39;100.00;96111.66;5033623;28;20463;-76
2021/07/08 03:41:05;;;;;;;4.63;0.90;;;;;;;15.44;100.00;96112.97;5033406;28;20416;-76
2021/07/08 03:43:31;;;;;;;1.90;1.00;;;;;;;15.44;100.00;96112.97;5033545;28;21014;-76
2021/07/08 03:45:56;;;;;;;2.00;1.10;;;;;;;15.46;100.00;96118.91;5033137;28;20411;-76
2021/07/08 03:48:22;;;;;;;1.33;0.77;;;;;;;15.46;100.00;96115.44;5033483;28;20493;-76
2021/07/08 03:50:47;;;;;;;1.50;0.80;;;;;;;15.40;100.00;96110.72;5033365;28;20473;-76
2021/07/08 03:53:13;;;;;;;1.85;0.80;;;;;;;15.44;100.00;96099.09;5032191;28;20928;-76
2021/07/08 03:55:39;;;;;;;1.60;0.80;;;;;;;15.42;100.00;96095.75;5031628;28;20473;-76
2021/07/08 03:58:05;;;;;;;2.40;0.90;;;;;;;15.38;100.00;96092.53;5033291;28;20447;-77
2021/07/08 04:00:33;;;;;;;2.43;0.97;;;;;;;15.29;100.00;96098.47;5033209;28;20916;-77
2021/07/08 04:03:03;;;;;;;2.78;0.82;;;;;;;15.18;100.00;96112.34;5033196;28;20407;-76
2021/07/08 04:05:28;;;;;;;1.65;0.90;;;;;;;15.16;100.00;96111.59;5031442;28;20433;-76
2021/07/08 04:07:54;;;;;;;1.92;0.90;;;;;;;15.25;100.00;96103.09;5033070;28;20855;-77
2021/07/08 04:10:20;;;;;;;2.93;1.00;;;;;;;15.34;100.00;96098.94;5032898;28;20422;-77
2021/07/08 04:12:47;;;;;;;2.75;1.30;;;;;;;15.34;100.00;96088.50;5032989;28;20429;-77
2021/07/08 04:15:12;;;;;;;3.30;1.50;;;;;;;15.30;100.00;96083.66;5032643;28;20410;-77
2021/07/08 04:17:37;;;;;;;2.72;1.30;;;;;;;15.20;100.00;96075.69;5032966;28;20430;-76
2021/07/08 04:20:05;;;;;;;6.50;1.30;;;;;;;15.10;100.00;96072.13;5031656;28;20423;-76
2021/07/08 04:22:31;;;;;;;5.20;1.30;;;;;;;15.08;100.00;96063.59;5032735;28;20418;-76
2021/07/08 04:24:56;;;;;;;3.40;1.30;;;;;;;15.04;100.00;96062.97;5031506;28;20789;-76
2021/07/08 04:27:22;;;;;;;2.57;1.33;;;;;;;15.00;100.00;96061.56;5032740;28;20986;-76
2021/07/08 04:29:48;;;;;;;3.17;1.50;;;;;;;14.92;100.00;96064.75;5032222;28;20417;-76
2021/07/08 04:32:14;;;;;;;5.40;1.33;;;;;;;14.98;100.00;96066.03;5031211;28;20430;-76
2021/07/08 04:34:40;;;;;;;2.40;1.13;;;;;;;15.07;100.00;96061.94;5032459;28;20457;-76
2021/07/08 04:37:06;;;;;;;2.67;1.10;;;;;;;14.98;100.00;96069.50;5031317;28;20947;-76
2021/07/08 04:39:31;;;;;;;3.63;1.13;;;;;;;14.72;100.00;96063.66;5032504;28;20418;-76
2021/07/08 04:41:57;;;;;;;5.70;1.27;;;;;;;14.61;100.00;96044.50;5032463;28;20417;-76
2021/07/08 04:54:37;;;;;;;2.03;1.08;;;;;;;14.83;100.00;96116.75;4989730;28;20537;-76
2021/07/08 05:00:42;;;;;;;2.88;0.90;;;;;;;14.84;100.00;96124.47;4992556;28;20950;-78
2021/07/08 05:03:08;;;;;;;4.70;1.00;;;;;;;14.87;100.00;96137.28;4994987;28;20473;-78
2021/07/08 05:05:34;;;;;;;2.17;0.93;;;;;;;14.95;100.00;96139.31;4994922;28;20468;-79
2021/07/08 05:07:59;;;;;;;1.70;1.07;;;;;;;15.08;100.00;96131.41;4978693;28;20936;-79
2021/07/08 05:10:25;;;;;;;1.73;0.80;;;;;;;15.14;100.00;96118.75;4994097;28;20484;-79
2021/07/08 05:12:51;;;;;;;2.28;0.80;;;;;;;15.27;100.00;96112.59;4995926;28;20473;-79
2021/07/08 05:15:17;;;;;;;1.85;0.82;;;;;;;15.47;100.00;96106.69;4995381;28;20434;-79
2021/07/08 05:17:45;;;;;;;0.95;0.80;;;;;;;15.41;100.00;96107.16;4995972;28;20426;-79
2021/07/08 05:20:12;;;;;;;5.70;1.00;;;;;;;15.33;100.00;96107.72;4995754;28;20418;-79
2021/07/08 05:22:39;;;;;;;2.50;0.90;;;;;;;15.19;100.00;96119.22;5010664;28;20982;-79
2021/07/08 05:25:06;;;;;;;1.73;0.90;;;;;;;15.05;100.00;96126.41;4993931;28;20505;-79
2021/07/08 05:27:33;;;;;;;6.17;1.30;;;;;;;14.98;100.00;96137.31;4993157;28;20503;-79
2021/07/08 05:29:59;;;;;;;1.83;1.08;;;;;;;14.96;100.00;96146.19;4993353;28;20939;-79
2021/07/08 05:32:25;;;;;;;3.88;1.05;;;;;;;14.97;100.00;96151.28;4993346;28;20943;-79
2021/07/08 05:34:52;;;;;;;2.75;1.00;;;;;;;15.00;100.00;96150.25;4994226;28;20505;-80
2021/07/08 05:37:17;;;;;;;2.45;1.25;;;;;;;15.17;100.00;96159.44;4995093;28;20465;-79
2021/07/08 05:39:43;;;;;;;5.55;1.10;;;;;;;15.30;100.00;96172.38;4993416;28;20434;-79
2021/07/08 05:42:08;;;;;;;1.13;0.93;;;;;;;15.40;100.00;96175.97;4993675;28;20465;-79
2021/07/08 05:44:34;;;;;;;2.00;1.10;;;;;;;15.46;100.00;96178.94;4992808;28;20840;-79
2021/07/08 05:46:59;;;;;;;2.30;1.10;;;;;;;15.58;100.00;96185.00;4991258;28;20428;-79
2021/07/08 05:49:25;;;;;;;3.60;1.10;;;;;;;15.57;100.00;96182.50;4996725;28;20434;-79
2021/07/08 05:51:52;;;;;;;4.63;1.07;;;;;;;15.57;100.00;96175.50;4983507;28;20423;-71
2021/07/08 05:54:17;;;;;;;2.30;1.10;;;;;;;15.71;100.00;96184.91;4973734;28;20434;-79
2021/07/08 05:56:42;;;;;;;5.10;1.48;;;;;;;15.77;100.00;96181.84;4986783;28;20435;-79
2021/07/08 05:59:08;;;;;;;2.80;1.70;;;;;;;15.80;100.00;96186.00;4994075;28;20415;-79
2021/07/08 06:01:33;;;;;;;6.40;1.77;;;;;;;15.68;100.00;96182.53;4992988;28;20575;-79
2021/07/08 06:03:59;;;;;;;4.30;1.42;;;;;;;15.65;100.00;96180.16;4995243;28;20414;-76
2021/07/08 06:06:26;;;;;;;3.73;1.60;;;;;;;15.62;100.00;96185.59;4990812;28;20465;-76
2021/07/08 06:08:53;;;;;;;5.82;1.90;;;;;;;15.55;100.00;96190.47;4999265;28;20430;-77
2021/07/08 06:11:18;;;;;;;6.97;1.50;;;;;;;15.62;100.00;96194.25;4997297;28;20437;-77
2021/07/08 06:13:44;;;;;;;2.47;1.37;;;;;;;15.53;100.00;96188.91;4996765;28;20433;-76
2021/07/08 06:16:10;;;;;;;6.70;1.50;;;;;;;15.57;100.00;96188.53;4997012;28;21045;-75
2021/07/08 06:18:36;;;;;;;3.78;1.33;;;;;;;15.64;100.00;96186.31;4995864;28;20424;-75
2021/07/08 06:21:02;;;;;;;3.35;1.40;;;;;;;15.67;100.00;96186.94;4996097;28;20493;-75
2021/07/08 06:23:27;;;;;;;2.65;1.20;;;;;;;15.69;100.00;96185.06;4996383;28;20434;-75
2021/07/08 06:25:54;;;;;;;3.57;1.30;;;;;;;15.72;100.00;96189.19;4996187;28;20438;-76
2021/07/08 06:28:20;;;;;;;2.72;1.30;;;;;;;15.79;100.00;96194.78;4992551;28;20472;-75
2021/07/08 06:30:45;;;;;;;2.17;1.17;;;;;;;15.76;100.00;96192.41;4993307;28;20433;-75
2021/07/08 06:33:11;;;;;;;5.00;1.37;;;;;;;15.80;100.00;96205.13;4993321;28;20418;-76
2021/07/08 06:35:37;;;;;;;9.43;1.60;;;;;;;15.86;100.00;96207.25;4992806;28;20411;-77
2021/07/08 06:38:03;;;;;;;5.70;1.30;;;;;;;15.88;100.00;96201.91;4991562;28;20481;-77
2021/07/08 06:40:29;;;;;;;2.17;1.30;;;;;;;15.91;100.00;96201.69;4993321;28;20970;-77
2021/07/08 06:42:58;;;;;;;4.00;1.20;;;;;;;15.90;100.00;96200.81;4991740;28;20458;-77
2021/07/08 06:45:24;;;;;;;3.70;1.45;;;;;;;15.89;100.00;96199.19;4991862;28;20430;-77
2021/07/08 06:47:51;;;;;;;6.47;1.23;;;;;;;15.98;100.00;96197.63;4993487;28;20430;-77
2021/07/08 06:50:17;;;;;;;2.88;1.40;;;;;;;15.95;100.00;96203.09;4993360;28;20966;-77
2021/07/08 06:52:43;;;;;;;1.90;1.08;;;;;;;15.86;100.00;96203.81;4992620;28;20454;-77
2021/07/08 06:55:10;;;;;;;4.68;1.55;;;;;;;15.87;100.00;96208.94;4997403;28;20434;-77
2021/07/08 06:57:39;;;;;;;5.95;1.33;;;;;;;15.95;100.00;96205.72;4997816;28;20434;-77
2021/07/08 07:00:07;;;;;;;7.03;1.38;;;;;;;15.94;100.00;96193.59;5011841;28;20432;-77
2021/07/08 07:02:32;;;;;;;3.25;1.33;;;;;;;16.09;100.00;96202.88;5018395;28;20430;-76
2021/07/08 07:04:58;;;;;;;2.67;1.30;;;;;;;16.24;100.00;96197.38;5016995;28;20412;-76
2021/07/08 07:07:23;;;;;;;2.87;1.30;;;;;;;16.41;100.00;96186.44;5014383;28;20416;-76
2021/07/08 07:09:48;;;;;;;5.05;1.30;;;;;;;16.55;100.00;96193.19;4993671;28;20481;-75
2021/07/08 07:12:15;;;;;;;1.93;1.27;;;;;;;16.64;100.00;96189.81;4995316;28;20476;-75
2021/07/08 07:14:40;;;;;;;3.53;1.35;;;;;;;16.73;100.00;96190.88;4996202;28;20430;-75
2021/07/08 07:17:07;;;;;;;1.80;1.13;;;;;;;16.93;100.00;96187.50;4994489;28;20448;-76
2021/07/08 07:19:32;;;;;;;3.17;1.40;;;;;;;16.92;100.00;96185.84;4999843;28;20424;-76
2021/07/08 07:22:00;;;;;;;3.53;1.27;;;;;;;16.91;100.00;96181.56;5010597;28;20501;-75
2021/07/08 07:24:26;;;;;;;3.50;1.50;;;;;;;17.03;100.00;96180.56;4993365;28;20426;-75
2021/07/08 07:26:51;;;;;;;3.40;1.20;;;;;;;17.09;100.00;96181.81;4998144;28;20425;-76
2021/07/08 07:29:17;;;;;;;1.80;1.20;;;;;;;17.10;100.00;96186.13;5008881;28;20414;-78
2021/07/08 07:31:42;;;;;;;2.88;1.30;;;;;;;17.10;100.00;96189.56;4997895;28;20450;-77
2021/07/08 07:34:10;;;;;;;2.23;1.40;;;;;;;17.12;100.00;96195.50;4997181;28;20432;-76
2021/07/08 07:36:35;;;;;;;1.63;1.08;;;;;;;17.21;100.00;96193.91;4988970;28;20420;-77
2021/07/08 07:39:00;;;;;;;2.80;1.48;;;;;;;17.13;100.00;96197.19;4984091;28;20965;-77
2021/07/08 07:41:26;;;;;;;4.50;1.30;;;;;;;17.07;100.00;96195.06;4993881;28;20418;-76
2021/07/08 07:43:51;;;;;;;5.00;1.47;;;;;;;17.10;100.00;96194.81;4993570;28;20423;-76
2021/07/08 07:46:17;;;;;;;3.92;1.40;;;;;;;17.23;100.00;96185.94;4994500;28;20761;-76
2021/07/08 07:48:44;;;;;;;2.77;1.20;;;;;;;17.26;100.00;96185.69;4995066;28;20911;-75
2021/07/08 07:51:10;;;;;;;4.45;1.35;;;;;;;17.33;100.00;96190.28;4992986;28;20434;-74
2021/07/08 07:53:36;;;;;;;3.50;1.55;;;;;;;17.31;100.00;96194.78;4992523;28;20772;-74
2021/07/08 07:56:02;;;;;;;2.43;1.20;;;;;;;17.44;100.00;96192.00;5008818;28;20423;-74
2021/07/08 07:58:27;;;;;;;2.30;1.40;;;;;;;17.45;100.00;96196.28;4993417;28;20430;-74
2021/07/08 08:00:55;;;;;;;5.73;1.37;;;;;;;17.54;100.00;96187.66;4993826;28;20517;-74
2021/07/08 08:03:21;;;;;;;3.00;1.30;;;;;;;17.78;100.00;96176.09;4993856;28;20425;-75
2021/07/08 08:05:57;;;;;;;2.33;1.50;;;;;;;18.06;100.00;96177.19;4992396;28;20888;-73
2021/07/08 08:08:27;;;;;;;2.20;1.40;;;;;;;18.14;100.00;96182.59;4993971;28;20433;-73
2021/07/08 08:10:54;;;;;;;3.45;1.55;;;;;;;18.16;100.00;96185.91;4994009;28;20437;-73
2021/07/08 08:13:21;;;;;;;2.90;1.48;;;;;;;18.14;100.00;96182.59;4993647;28;20472;-73
2021/07/08 08:15:47;;;;;;;1.50;1.10;;;;;;;18.31;100.00;96181.94;4993813;28;20426;-73
2021/07/08 08:18:12;;;;;;;3.03;1.20;;;;;;;18.25;100.00;96177.25;4993675;28;20426;-73
2021/07/08 08:20:38;;;;;;;2.63;1.30;;;;;;;18.21;100.00;96181.09;4993712;28;20929;-73
2021/07/08 08:23:04;;;;;;;2.25;1.27;;;;;;;18.26;100.00;96188.56;4993726;28;20418;-73
2021/07/08 08:25:31;;;;;;;2.40;1.20;;;;;;;18.02;100.00;96187.13;4993546;28;20553;-73
2021/07/08 08:27:57;;;;;;;2.25;1.10;;;;;;;18.07;100.00;96190.16;4993732;28;20422;-75
2021/07/08 08:30:23;;;;;;;2.35;1.08;;;;;;;18.26;100.00;96185.94;4991954;28;20422;-75
2021/07/08 08:32:48;;;;;;;4.30;0.90;;;;;;;18.22;100.00;96201.09;4992509;28;20469;-73
2021/07/08 08:35:14;;;;;;;4.30;1.20;;;;;;;18.29;100.00;96197.00;4992279;28;20546;-74
2021/07/08 08:37:43;;;;;;;1.70;1.07;;;;;;;18.29;100.00;96204.03;4992471;28;20426;-73
2021/07/08 08:40:10;;;;;;;1.90;0.80;;;;;;;18.25;100.00;96200.84;4992591;28;20422;-73
2021/07/08 08:42:37;;;;;;;2.90;1.00;;;;;;;18.44;100.00;96204.50;4992974;28;20521;-73
2021/07/08 08:45:07;;;;;;;1.80;1.00;;;;;;;18.52;97.01;96197.59;4993195;28;20759;-73
2021/07/08 08:47:32;;;;;;;2.47;1.05;;;;;;;18.58;96.97;96207.56;4993077;28;20426;-73
2021/07/08 08:50:00;;;;;;;2.78;1.15;;;;;;;18.59;95.03;96206.59;4993258;28;20414;-73
2021/07/08 08:52:28;;;;;;;3.67;1.20;;;;;;;18.58;94.76;96215.44;4993063;28;20769;-73
2021/07/08 08:54:54;;;;;;;3.97;0.90;;;;;;;18.55;92.09;96209.63;4993018;28;20423;-73
2021/07/08 08:57:19;;;;;;;1.90;0.90;;;;;;;18.58;91.29;96212.81;4992673;28;20414;-73
2021/07/08 08:59:46;;;;;;;1.90;1.00;;;;;;;18.57;92.05;96223.41;4991459;28;20434;-73
2021/07/08 09:02:14;;;;;;;1.33;0.80;;;;;;;18.54;94.33;96223.69;4992862;28;20725;-73
2021/07/08 09:04:40;;;;;;;3.15;1.10;;;;;;;18.57;94.92;96221.63;4992739;28;20426;-73
2021/07/08 09:07:26;;;;;;;2.28;1.20;;;;;;;18.60;94.57;96223.97;4991075;28;20472;-73
2021/07/08 09:09:54;;;;;;;3.40;1.27;;;;;;;18.51;93.81;96232.66;4992639;28;20446;-73
2021/07/08 09:12:22;;;;;;;2.47;1.35;;;;;;;18.52;95.32;96244.81;4992785;28;21029;-72
2021/07/08 09:14:50;;;;;;;2.95;1.45;;;;;;;18.53;96.17;96241.22;4992809;28;20848;-72
2021/07/08 09:17:17;;;;;;;3.58;1.40;;;;;;;18.60;95.53;96233.66;4990845;28;20431;-72
2021/07/08 09:19:42;;;;;;;3.40;1.40;;;;;;;18.51;96.82;96235.28;4992555;28;20422;-73
2021/07/08 09:22:08;;;;;;;2.25;1.30;;;;;;;18.55;98.27;96235.84;4992513;28;20465;-72
2021/07/08 09:24:34;;;;;;;2.90;1.10;;;;;;;18.46;96.23;96236.63;4991233;28;20414;-72
2021/07/08 09:27:03;;;;;;;2.83;1.47;;;;;;;18.41;96.84;96242.28;4992155;28;20890;-72
2021/07/08 09:29:30;;;;;;;3.97;1.25;;;;;;;18.38;96.08;96226.81;4992578;28;20791;-72
2021/07/08 09:31:59;;;;;;;1.73;1.07;;;;;;;18.32;96.74;96222.94;4991139;28;20459;-72
2021/07/08 09:34:27;;;;;;;2.93;1.30;;;;;;;18.35;96.82;96224.47;4990896;28;20422;-72
2021/07/08 09:37:05;;;;;;;4.32;1.17;;;;;;;18.33;97.62;96221.97;4992062;28;20422;-72
2021/07/08 09:39:32;;;;;;;2.75;1.40;;;;;;;18.30;96.82;96230.09;4992113;28;20513;-73
2021/07/08 09:41:58;;;;;;;4.53;1.23;;;;;;;18.40;97.57;96232.78;4992131;28;20457;-72
2021/07/08 09:44:25;;;;;;;2.30;1.10;;;;;;;18.50;95.59;96232.78;5007248;28;20439;-72
2021/07/08 09:46:51;;;;;;;2.55;1.38;;;;;;;18.48;95.58;96238.19;4992038;28;20423;-72
2021/07/08 09:49:18;;;;;;;2.22;1.05;;;;;;;18.51;97.18;96239.72;4991953;28;20507;-73
2021/07/08 09:51:45;;;;;;;1.25;1.00;;;;;;;18.52;98.49;96236.13;4990815;28;20458;-73
2021/07/08 09:54:20;;;;;;;2.97;1.27;;;;;;;18.49;100.00;96239.84;4990810;28;20434;-73
2021/07/08 09:56:49;;;;;;;2.58;1.00;;;;;;;18.48;99.35;96235.56;4990466;28;20427;-73
2021/07/08 09:59:16;;;;;;;1.00;0.90;;;;;;;18.62;97.23;96223.88;4991654;28;20509;-73
2021/07/08 10:01:43;;;;;;;3.93;1.23;;;;;;;18.53;97.49;96224.66;4991870;28;20494;-73
2021/07/08 10:04:09;;;;;;;1.27;0.93;;;;;;;18.59;100.00;96222.34;4990714;28;20421;-73
2021/07/08 10:06:37;;;;;;;2.65;1.10;;;;;;;18.62;100.00;96229.94;4990165;28;20525;-71
2021/07/08 10:09:03;;;;;;;2.73;1.20;;;;;;;18.60;100.00;96223.97;4990473;28;20465;-73
2021/07/08 10:11:30;;;;;;;1.65;1.00;;;;;;;18.69;100.00;96227.59;4991685;28;20422;-73
2021/07/08 10:13:57;;;;;;;4.15;0.93;;;;;;;18.61;100.00;96220.41;4991623;28;20453;-73
2021/07/08 10:16:25;;;;;;;2.40;1.10;;;;;;;18.52;100.00;96215.13;4991477;28;20780;-73
2021/07/08 10:18:51;;;;;;;1.13;0.98;;;;;;;18.59;100.00;96208.38;4991559;28;20480;-73
2021/07/08 10:21:18;;;;;;;2.25;1.10;;;;;;;18.44;100.00;96197.44;4991508;28;20429;-74
2021/07/08 10:23:45;;;;;;;2.25;1.20;;;;;;;18.32;100.00;96188.88;4991585;28;20407;-74
2021/07/08 10:26:11;;;;;;;2.75;1.10;;;;;;;18.58;100.00;96177.88;4991312;28;20437;-74
2021/07/08 10:28:41;;;;;;;1.35;0.98;;;;;;;18.59;100.00;96193.47;4990925;28;20963;-74
2021/07/08 10:31:07;;;;;;;3.33;1.13;;;;;;;18.82;100.00;96201.13;4996395;28;20430;-73
2021/07/08 10:33:32;;;;;;;1.50;1.00;;;;;;;18.70;100.00;96205.66;5008334;28;20423;-74
2021/07/08 10:35:59;;;;;;;6.37;1.43;;;;;;;18.63;100.00;96215.84;5008066;28;20457;-74
2021/07/08 10:38:36;;;;;;;2.75;1.13;;;;;;;18.22;100.00;96214.22;5007811;28;20433;-74
2021/07/08 10:41:40;;;;;;;4.43;1.40;;;;;;;18.17;100.00;96220.81;4994944;28;20431;-74
2021/07/08 10:44:52;;;;;;;2.95;1.30;;;;;;;17.94;100.00;96226.22;4991201;28;20772;-73
2021/07/08 10:47:37;;;;;;;2.03;1.17;;;;;;;17.94;100.00;96223.59;4988455;28;20435;-74
2021/07/08 10:50:06;;;;;;;3.22;0.93;;;;;;;17.79;100.00;96230.16;4983322;28;20437;-74
2021/07/08 10:52:43;;;;;;;1.70;1.00;;;;;;;17.79;100.00;96230.97;4991222;28;20434;-74
2021/07/08 10:55:09;;;;;;;1.15;0.70;;;;;;;17.90;100.00;96235.31;4990991;28;20774;-74
2021/07/08 10:57:39;;;;;;;1.73;0.60;;;;;;;17.83;100.00;96232.38;4991181;28;20440;-74
2021/07/08 11:00:08;;;;;;;1.40;0.88;;;;;;;17.83;100.00;96235.00;4989106;28;20473;-75
2021/07/08 11:02:46;;;;;;;1.95;0.70;;;;;;;17.91;100.00;96237.00;4986821;28;20899;-77
2021/07/08 11:05:12;;;;;;;1.02;0.73;;;;;;;17.88;100.00;96237.25;4989729;28;20426;-74
2021/07/08 11:07:44;;;;;;;1.83;0.70;;;;;;;17.84;100.00;96236.69;4991408;28;20970;-75
2021/07/08 11:10:11;;;;;;;1.38;0.70;;;;;;;17.81;100.00;96234.31;4990078;28;20836;-76
2021/07/08 11:12:39;;;;;;;2.03;0.53;;;;;;;17.80;100.00;96242.31;4991264;28;20421;-74
2021/07/08 11:15:07;;;;;;;1.10;0.70;;;;;;;17.99;100.00;96237.16;4991052;28;20792;-76
2021/07/08 11:17:40;;;;;;;2.50;0.70;;;;;;;17.94;100.00;96234.09;5005555;28;20711;-74
2021/07/08 11:20:28;;;;;;;1.98;0.70;;;;;;;18.09;100.00;96227.53;5009456;28;20478;-76
2021/07/08 11:22:53;;;;;;;1.30;0.60;;;;;;;18.00;100.00;96230.13;4991671;28;20422;-76
2021/07/08 11:25:18;;;;;;;0.65;0.47;;;;;;;18.00;100.00;96217.03;4990829;28;20411;-74
2021/07/08 11:27:45;;;;;;;1.10;0.70;;;;;;;17.96;100.00;96213.84;4990546;28;20421;-74
2021/07/08 11:30:26;;;;;;;1.70;0.70;;;;;;;18.19;100.00;96208.41;4990890;28;20936;-76
2021/07/08 11:32:57;;;;;;;0.68;0.50;;;;;;;18.19;100.00;96218.91;4990940;28;20480;-74
2021/07/08 11:35:35;;;;;;;0.70;0.50;;;;;;;18.11;100.00;96214.31;4989147;28;20789;-74
2021/07/08 11:38:03;;;;;;;1.10;0.50;;;;;;;18.41;100.00;96217.88;4990995;28;20446;-73
2021/07/08 11:40:35;;;;;;;2.63;0.80;;;;;;;18.37;100.00;96217.31;4991618;28;20951;-76